createdAt,value
2019-05-25T00:00:39.383Z,13.85
2019-05-25T00:02:46.868Z,13.85
2019-05-25T00:04:54.411Z,13.77
2019-05-25T00:07:01.980Z,13.71
2019-05-25T00:09:10.067Z,13.66
2019-05-25T00:11:18.897Z,13.64
2019-05-25T00:13:26.537Z,13.65
2019-05-25T00:15:34.121Z,13.68
2019-05-25T00:17:41.596Z,13.63
2019-05-25T00:19:48.951Z,13.58
2019-05-25T00:21:56.318Z,13.61
2019-05-25T00:24:12.214Z,13.53
2019-05-25T00:26:12.909Z,13.51
2019-05-25T00:28:20.344Z,13.50
2019-05-25T00:30:27.842Z,13.43
2019-05-25T00:32:35.245Z,13.39
2019-05-25T00:34:42.716Z,13.37
2019-05-25T00:36:50.120Z,13.37
2019-05-25T00:38:57.544Z,13.35
2019-05-25T00:41:04.988Z,13.33
2019-05-25T00:43:12.406Z,13.33
2019-05-25T00:45:19.934Z,13.31
2019-05-25T00:47:27.366Z,13.23
2019-05-25T00:49:34.741Z,13.24
2019-05-25T00:51:42.168Z,13.22
2019-05-25T00:53:49.578Z,13.19
2019-05-25T00:55:56.950Z,13.14
2019-05-25T00:58:04.333Z,13.15
2019-05-25T01:00:12.364Z,13.10
2019-05-25T01:02:19.792Z,13.10
2019-05-25T01:04:27.278Z,13.06
2019-05-25T01:06:34.829Z,13.05
2019-05-25T01:08:42.195Z,12.99
2019-05-25T01:10:49.597Z,12.96
2019-05-25T01:12:57.158Z,12.91
2019-05-25T01:15:07.787Z,12.92
2019-05-25T01:17:15.192Z,12.92
2019-05-25T01:19:22.613Z,12.83
2019-05-25T01:21:30.343Z,12.80
2019-05-25T01:23:37.795Z,12.79
2019-05-25T01:25:45.307Z,12.64
2019-05-25T01:27:52.783Z,12.56
2019-05-25T01:30:00.186Z,12.55
2019-05-25T01:32:07.601Z,12.47
2019-05-25T01:34:15.034Z,12.47
2019-05-25T01:36:22.461Z,12.46
2019-05-25T01:38:29.867Z,12.43
2019-05-25T01:40:37.296Z,12.38
2019-05-25T01:42:44.680Z,12.35
2019-05-25T01:44:52.083Z,12.30
2019-05-25T01:46:59.577Z,12.32
2019-05-25T01:49:07.069Z,12.31
2019-05-25T01:51:14.460Z,12.26
2019-05-25T01:53:21.908Z,12.19
2019-05-25T01:55:29.244Z,12.18
2019-05-25T01:57:36.621Z,12.18
2019-05-25T01:59:44.197Z,12.10
2019-05-25T02:01:51.688Z,12.07
2019-05-25T02:03:59.071Z,12.02
2019-05-25T02:06:06.590Z,11.97
2019-05-25T02:08:14.048Z,11.97
2019-05-25T02:10:21.538Z,11.90
2019-05-25T02:12:28.941Z,11.76
2019-05-25T02:14:36.389Z,11.70
2019-05-25T02:16:43.928Z,11.67
2019-05-25T02:18:51.347Z,11.65
2019-05-25T02:20:58.696Z,11.60
2019-05-25T02:23:06.186Z,11.61
2019-05-25T02:25:18.067Z,11.61
2019-05-25T02:27:23.631Z,11.62
2019-05-25T02:29:31.036Z,11.63
2019-05-25T02:31:38.379Z,11.52
2019-05-25T02:33:45.828Z,11.44
2019-05-25T02:35:53.305Z,11.40
2019-05-25T02:38:00.701Z,11.36
2019-05-25T02:40:08.533Z,11.30
2019-05-25T02:42:15.978Z,11.32
2019-05-25T02:44:23.429Z,11.27
2019-05-25T02:46:30.806Z,11.27
2019-05-25T02:48:38.190Z,11.27
2019-05-25T02:50:46.899Z,11.29
2019-05-25T02:52:54.335Z,11.24
2019-05-25T02:55:01.695Z,11.31
2019-05-25T02:57:09.054Z,11.27
2019-05-25T02:59:16.440Z,11.24
2019-05-25T03:01:23.956Z,11.28
2019-05-25T03:03:31.814Z,11.25
2019-05-25T03:05:39.419Z,11.29
2019-05-25T03:07:48.212Z,11.22
2019-05-25T03:09:58.608Z,11.20
2019-05-25T03:12:06.251Z,11.19
2019-05-25T03:14:13.731Z,11.28
2019-05-25T03:16:21.229Z,11.29
2019-05-25T03:18:28.608Z,11.28
2019-05-25T03:20:36.166Z,11.31
2019-05-25T03:22:43.547Z,11.32
2019-05-25T03:24:50.966Z,11.43
2019-05-25T03:26:58.417Z,11.39
2019-05-25T03:29:05.964Z,11.36
2019-05-25T03:31:13.352Z,11.39
2019-05-25T03:33:20.759Z,11.39
2019-05-25T03:35:28.306Z,11.39
2019-05-25T03:37:35.919Z,11.40
2019-05-25T03:39:43.336Z,11.42
2019-05-25T03:41:51.335Z,11.52
2019-05-25T03:43:58.844Z,11.54
2019-05-25T03:46:06.257Z,11.53
2019-05-25T03:48:13.650Z,11.70
2019-05-25T03:50:21.528Z,11.67
2019-05-25T03:52:28.938Z,11.66
2019-05-25T03:54:36.299Z,11.73
2019-05-25T03:56:43.771Z,11.86
2019-05-25T03:58:51.210Z,11.81
2019-05-25T04:00:59.162Z,11.94
2019-05-25T04:03:07.444Z,11.93
2019-05-25T04:05:15.053Z,11.91
2019-05-25T04:07:22.437Z,11.99
2019-05-25T04:09:29.938Z,11.80
2019-05-25T04:11:37.486Z,11.84
2019-05-25T04:13:44.875Z,11.96
2019-05-25T04:15:52.336Z,12.10
2019-05-25T04:17:59.770Z,12.24
2019-05-25T04:20:07.745Z,12.33
2019-05-25T04:22:15.214Z,12.01
2019-05-25T04:24:22.632Z,12.08
2019-05-25T04:26:30.244Z,12.13
2019-05-25T04:28:37.708Z,12.30
2019-05-25T04:30:45.148Z,12.35
2019-05-25T04:32:52.698Z,12.28
2019-05-25T04:35:00.131Z,12.45
2019-05-25T04:37:07.704Z,12.44
2019-05-25T04:39:15.146Z,12.41
2019-05-25T04:41:22.627Z,12.43
2019-05-25T04:43:30.135Z,12.52
2019-05-25T04:45:37.576Z,12.47
2019-05-25T04:47:45.151Z,12.54
2019-05-25T04:49:52.617Z,12.57
2019-05-25T04:52:00.137Z,12.66
2019-05-25T04:54:07.933Z,12.69
2019-05-25T04:56:15.495Z,12.67
2019-05-25T04:58:23.017Z,12.61
2019-05-25T05:00:30.753Z,12.69
2019-05-25T05:02:38.228Z,12.74
2019-05-25T05:04:45.681Z,12.87
2019-05-25T05:06:53.215Z,12.90
2019-05-25T05:09:00.862Z,12.87
2019-05-25T05:11:08.767Z,12.94
2019-05-25T05:13:16.383Z,13.00
2019-05-25T05:15:24.734Z,13.06
2019-05-25T05:17:32.347Z,13.12
2019-05-25T05:19:39.736Z,13.14
2019-05-25T05:21:47.228Z,13.23
2019-05-25T05:23:54.760Z,13.27
2019-05-25T05:26:02.265Z,13.34
2019-05-25T05:28:09.652Z,13.49
2019-05-25T05:30:17.535Z,13.54
2019-05-25T05:32:27.856Z,13.58
2019-05-25T05:34:34.421Z,13.60
2019-05-25T05:36:43.138Z,13.63
2019-05-25T05:38:51.695Z,13.65
2019-05-25T05:41:00.682Z,13.77
2019-05-25T05:43:12.557Z,13.75
2019-05-25T05:45:20.090Z,13.84
2019-05-25T05:47:29.429Z,13.94
2019-05-25T05:49:37.286Z,14.01
2019-05-25T05:51:50.211Z,14.19
2019-05-25T05:53:58.160Z,14.27
2019-05-25T05:56:05.889Z,14.25
2019-05-25T05:58:13.394Z,14.24
2019-05-25T06:00:21.436Z,14.29
2019-05-25T06:02:28.938Z,14.47
2019-05-25T06:04:36.506Z,14.70
2019-05-25T06:06:44.143Z,14.70
2019-05-25T06:08:51.903Z,14.78
2019-05-25T06:10:59.477Z,14.76
2019-05-25T06:13:07.285Z,14.70
2019-05-25T06:15:16.262Z,14.71
2019-05-25T06:17:24.011Z,14.83
2019-05-25T06:19:32.427Z,14.79
2019-05-25T06:21:39.992Z,14.91
2019-05-25T06:23:47.430Z,15.22
2019-05-25T06:25:55.022Z,15.27
2019-05-25T06:28:02.586Z,15.40
2019-05-25T06:30:11.566Z,15.53
2019-05-25T06:32:19.050Z,15.60
2019-05-25T06:34:26.679Z,15.62
2019-05-25T06:36:34.115Z,15.71
2019-05-25T06:38:41.690Z,15.62
2019-05-25T06:40:49.397Z,15.59
2019-05-25T06:42:57.154Z,15.87
2019-05-25T06:45:05.313Z,15.93
2019-05-25T06:47:13.331Z,15.86
2019-05-25T06:49:21.099Z,15.90
2019-05-25T06:51:29.411Z,16.00
2019-05-25T06:53:37.226Z,16.03
2019-05-25T06:55:45.173Z,16.07
2019-05-25T06:57:52.809Z,16.29
2019-05-25T07:00:00.602Z,16.31
2019-05-25T07:02:08.414Z,16.54
2019-05-25T07:04:15.997Z,16.55
2019-05-25T07:06:24.266Z,16.61
2019-05-25T07:08:32.169Z,16.65
2019-05-25T07:10:40.460Z,16.68
2019-05-25T07:12:48.114Z,16.86
2019-05-25T07:14:57.295Z,16.91
2019-05-25T07:17:05.391Z,16.94
2019-05-25T07:19:13.256Z,16.78
2019-05-25T07:21:21.437Z,16.90
2019-05-25T07:23:30.250Z,17.09
2019-05-25T07:25:38.333Z,17.23
2019-05-25T07:27:58.283Z,17.38
2019-05-25T07:29:55.015Z,17.33
2019-05-25T07:32:03.162Z,17.53
2019-05-25T07:34:10.680Z,17.35
2019-05-25T07:36:18.908Z,17.22
2019-05-25T07:38:26.545Z,17.19
2019-05-25T07:40:34.702Z,17.26
2019-05-25T07:42:42.154Z,17.37
2019-05-25T07:44:49.662Z,17.52
2019-05-25T07:46:57.652Z,17.76
2019-05-25T07:49:05.281Z,17.87
2019-05-25T07:51:12.720Z,17.72
2019-05-25T07:53:20.520Z,17.62
2019-05-25T07:55:28.087Z,17.57
2019-05-25T07:57:35.805Z,17.49
2019-05-25T07:59:43.582Z,17.55
2019-05-25T08:01:51.454Z,17.88
2019-05-25T08:03:58.967Z,18.01
2019-05-25T08:06:06.441Z,17.74
2019-05-25T08:08:13.904Z,17.71
2019-05-25T08:10:22.261Z,18.09
2019-05-25T08:12:29.861Z,18.21
2019-05-25T08:14:37.310Z,18.30
2019-05-25T08:16:44.854Z,18.38
2019-05-25T08:18:52.326Z,18.13
2019-05-25T08:20:59.729Z,18.18
2019-05-25T08:23:07.262Z,18.20
2019-05-25T08:25:14.973Z,18.27
2019-05-25T08:27:22.615Z,18.52
2019-05-25T08:29:30.166Z,18.65
2019-05-25T08:31:37.600Z,18.54
2019-05-25T08:33:45.057Z,18.61
2019-05-25T08:35:52.752Z,18.78
2019-05-25T08:38:00.191Z,18.96
2019-05-25T08:40:08.861Z,19.01
2019-05-25T08:42:16.568Z,18.97
2019-05-25T08:44:24.493Z,18.77
2019-05-25T08:46:32.075Z,19.00
2019-05-25T08:48:39.532Z,19.37
2019-05-25T08:50:47.035Z,19.18
2019-05-25T08:52:54.888Z,19.15
2019-05-25T08:55:02.387Z,19.43
2019-05-25T08:57:13.763Z,19.43
2019-05-25T08:59:20.025Z,19.52
2019-05-25T09:01:27.612Z,19.55
2019-05-25T09:03:35.307Z,19.22
2019-05-25T09:05:42.789Z,19.23
2019-05-25T09:07:50.453Z,19.57
2019-05-25T09:09:58.255Z,19.55
2019-05-25T09:12:06.001Z,19.28
2019-05-25T09:14:13.788Z,19.22
2019-05-25T09:16:22.187Z,19.27
2019-05-25T09:18:29.673Z,19.64
2019-05-25T09:20:37.158Z,19.91
2019-05-25T09:22:44.865Z,20.07
2019-05-25T09:24:52.378Z,19.94
2019-05-25T09:26:59.837Z,20.08
2019-05-25T09:29:08.218Z,19.87
2019-05-25T09:31:15.747Z,19.66
2019-05-25T09:33:23.649Z,19.77
2019-05-25T09:35:31.288Z,19.97
2019-05-25T09:37:39.036Z,20.16
2019-05-25T09:39:46.562Z,20.01
2019-05-25T09:41:54.089Z,20.08
2019-05-25T09:44:01.580Z,19.92
2019-05-25T09:46:09.216Z,20.10
2019-05-25T09:48:16.716Z,20.04
2019-05-25T09:50:24.270Z,19.98
2019-05-25T09:52:31.905Z,20.02
2019-05-25T09:54:39.418Z,20.29
2019-05-25T09:56:46.890Z,20.40
2019-05-25T09:58:54.300Z,20.36
2019-05-25T10:01:01.787Z,20.19
2019-05-25T10:03:09.342Z,20.13
2019-05-25T10:05:17.077Z,20.25
2019-05-25T10:07:24.684Z,20.21
2019-05-25T10:09:32.185Z,20.44
2019-05-25T10:11:39.604Z,20.65
2019-05-25T10:13:47.095Z,20.60
2019-05-25T10:15:54.518Z,20.44
2019-05-25T10:18:01.923Z,20.48
2019-05-25T10:20:10.536Z,20.82
2019-05-25T10:22:18.082Z,20.89
2019-05-25T10:24:25.687Z,20.55
2019-05-25T10:26:33.399Z,20.53
2019-05-25T10:28:40.844Z,20.72
2019-05-25T10:30:48.378Z,20.60
2019-05-25T10:32:55.886Z,20.72
2019-05-25T10:35:03.506Z,20.62
2019-05-25T10:37:11.058Z,20.69
2019-05-25T10:39:18.537Z,20.73
2019-05-25T10:41:25.992Z,20.70
2019-05-25T10:43:33.511Z,20.65
2019-05-25T10:45:40.959Z,21.00
2019-05-25T10:47:48.457Z,21.13
2019-05-25T10:49:55.934Z,21.37
2019-05-25T10:52:03.534Z,21.31
2019-05-25T10:54:10.970Z,21.30
2019-05-25T10:56:18.516Z,20.92
2019-05-25T10:58:25.943Z,20.87
2019-05-25T11:00:33.602Z,21.07
2019-05-25T11:02:41.371Z,21.65
2019-05-25T11:04:48.781Z,21.51
2019-05-25T11:06:56.316Z,21.41
2019-05-25T11:09:04.104Z,21.41
2019-05-25T11:11:11.755Z,21.63
2019-05-25T11:13:19.383Z,21.36
2019-05-25T11:15:26.876Z,21.18
2019-05-25T11:17:34.458Z,21.54
2019-05-25T11:19:41.902Z,21.30
2019-05-25T11:21:49.530Z,21.39
2019-05-25T11:23:57.118Z,21.60
2019-05-25T11:26:04.828Z,21.68
2019-05-25T11:28:12.586Z,21.95
2019-05-25T11:30:20.415Z,21.93
2019-05-25T11:32:28.186Z,21.88
2019-05-25T11:34:36.196Z,22.07
2019-05-25T11:36:44.577Z,21.94
2019-05-25T11:38:52.110Z,21.37
2019-05-25T11:40:59.711Z,21.35
2019-05-25T11:43:07.167Z,21.46
2019-05-25T11:45:16.167Z,21.95
2019-05-25T11:47:24.300Z,21.72
2019-05-25T11:49:31.904Z,21.56
2019-05-25T11:51:39.702Z,22.03
2019-05-25T11:53:47.422Z,21.69
2019-05-25T11:55:55.420Z,22.10
2019-05-25T11:58:03.108Z,21.93
2019-05-25T12:00:24.319Z,21.95
2019-05-25T12:02:22.743Z,21.79
2019-05-25T12:04:30.775Z,22.02
2019-05-25T12:06:38.224Z,22.12
2019-05-25T12:08:45.837Z,21.83
2019-05-25T12:10:53.292Z,22.09
2019-05-25T12:13:00.784Z,22.28
2019-05-25T12:15:09.597Z,22.26
2019-05-25T12:17:17.161Z,22.14
2019-05-25T12:19:24.962Z,22.39
2019-05-25T12:21:32.523Z,22.30
2019-05-25T12:23:40.007Z,21.86
2019-05-25T12:25:47.462Z,21.96
2019-05-25T12:27:55.077Z,22.44
2019-05-25T12:30:02.636Z,22.32
2019-05-25T12:32:10.269Z,21.97
2019-05-25T12:34:18.621Z,21.76
2019-05-25T12:36:26.372Z,21.80
2019-05-25T12:38:33.891Z,21.88
2019-05-25T12:40:53.198Z,22.07
2019-05-25T12:42:50.864Z,21.93
2019-05-25T12:44:58.494Z,22.16
2019-05-25T12:47:06.770Z,22.37
2019-05-25T12:49:14.476Z,22.37
2019-05-25T12:51:22.241Z,22.56
2019-05-25T12:53:30.846Z,22.57
2019-05-25T12:55:38.629Z,22.67
2019-05-25T12:57:46.634Z,22.49
2019-05-25T12:59:54.590Z,22.49
2019-05-25T13:02:02.659Z,22.62
2019-05-25T13:04:10.529Z,22.86
2019-05-25T13:06:18.509Z,22.30
2019-05-25T13:08:26.215Z,22.39
2019-05-25T13:10:33.805Z,22.29
2019-05-25T13:12:41.767Z,22.29
2019-05-25T13:14:49.266Z,22.17
2019-05-25T13:16:56.828Z,22.01
2019-05-25T13:19:04.466Z,21.98
2019-05-25T13:21:11.908Z,22.10
2019-05-25T13:23:19.519Z,22.09
2019-05-25T13:25:27.133Z,22.17
2019-05-25T13:27:34.847Z,22.52
2019-05-25T13:29:42.375Z,22.16
2019-05-25T13:31:50.023Z,22.08
2019-05-25T13:33:57.586Z,21.91
2019-05-25T13:36:05.170Z,21.84
2019-05-25T13:38:12.766Z,22.01
2019-05-25T13:40:20.937Z,22.50
2019-05-25T13:42:28.400Z,22.52
2019-05-25T13:44:36.051Z,22.15
2019-05-25T13:46:43.816Z,22.29
2019-05-25T13:48:51.369Z,22.36
2019-05-25T13:50:58.968Z,22.22
2019-05-25T13:53:06.526Z,21.94
2019-05-25T13:55:14.615Z,21.79
2019-05-25T13:57:22.371Z,21.97
2019-05-25T13:59:30.113Z,22.05
2019-05-25T14:01:39.033Z,21.89
2019-05-25T14:03:47.814Z,21.66
2019-05-25T14:05:55.371Z,21.54
2019-05-25T14:08:03.054Z,21.50
2019-05-25T14:10:11.620Z,21.65
2019-05-25T14:12:19.603Z,21.55
2019-05-25T14:14:27.405Z,21.59
2019-05-25T14:16:35.619Z,21.46
2019-05-25T14:18:43.396Z,21.52
2019-05-25T14:20:51.162Z,21.38
2019-05-25T14:22:58.914Z,21.19
2019-05-25T14:25:07.835Z,21.20
2019-05-25T14:27:15.359Z,21.04
2019-05-25T14:29:26.136Z,21.03
2019-05-25T14:31:44.835Z,21.09
2019-05-25T14:33:41.662Z,21.21
2019-05-25T14:35:49.213Z,21.21
2019-05-25T14:37:56.666Z,21.12
2019-05-25T14:40:05.217Z,21.03
2019-05-25T14:42:12.840Z,20.94
2019-05-25T14:44:20.555Z,21.05
2019-05-25T14:46:28.480Z,21.02
2019-05-25T14:48:36.183Z,20.98
2019-05-25T14:50:43.856Z,20.91
2019-05-25T14:52:51.757Z,21.04
2019-05-25T14:54:59.350Z,20.87
2019-05-25T14:57:06.894Z,20.93
2019-05-25T14:59:14.790Z,21.01
2019-05-25T15:01:22.392Z,21.05
2019-05-25T15:03:30.146Z,20.86
2019-05-25T15:05:37.687Z,20.93
2019-05-25T15:07:45.393Z,20.76
2019-05-25T15:09:53.121Z,20.86
2019-05-25T15:12:00.521Z,20.80
2019-05-25T15:14:08.171Z,20.92
2019-05-25T15:16:15.773Z,20.89
2019-05-25T15:18:23.360Z,20.72
2019-05-25T15:20:30.861Z,20.59
2019-05-25T15:22:38.884Z,20.51
2019-05-25T15:24:47.019Z,20.46
2019-05-25T15:26:54.728Z,20.50
2019-05-25T15:29:02.206Z,20.51
2019-05-25T15:31:09.671Z,20.48
2019-05-25T15:33:17.392Z,20.40
2019-05-25T15:35:25.170Z,20.34
2019-05-25T15:37:32.798Z,20.34
2019-05-25T15:39:40.492Z,20.30
2019-05-25T15:41:48.542Z,20.35
2019-05-25T15:43:56.332Z,20.29
2019-05-25T15:46:04.042Z,20.39
2019-05-25T15:48:11.630Z,20.38
2019-05-25T15:50:21.031Z,20.35
2019-05-25T15:52:28.563Z,20.19
2019-05-25T15:54:36.150Z,20.08
2019-05-25T15:56:43.821Z,20.07
2019-05-25T15:58:51.378Z,20.01
2019-05-25T16:00:58.860Z,19.93
2019-05-25T16:03:06.415Z,19.87
2019-05-25T16:05:14.819Z,19.96
2019-05-25T16:07:22.306Z,19.91
2019-05-25T16:09:29.947Z,19.85
2019-05-25T16:11:37.624Z,19.82
2019-05-25T16:13:45.030Z,19.88
2019-05-25T16:15:52.677Z,19.80
2019-05-25T16:18:00.146Z,19.84
2019-05-25T16:20:08.670Z,19.75
2019-05-25T16:22:16.332Z,19.67
2019-05-25T16:24:23.811Z,19.65
2019-05-25T16:26:44.905Z,19.69
2019-05-25T16:28:40.618Z,19.63
2019-05-25T16:30:48.280Z,19.75
2019-05-25T16:33:14.070Z,19.66
2019-05-25T16:35:05.736Z,19.51
2019-05-25T16:37:13.568Z,19.59
2019-05-25T16:39:21.235Z,19.39
2019-05-25T16:41:28.697Z,19.36
2019-05-25T16:43:36.233Z,19.32
2019-05-25T16:45:44.366Z,19.40
2019-05-25T16:47:52.147Z,19.35
2019-05-25T16:49:59.818Z,19.28
2019-05-25T16:52:07.351Z,19.28
2019-05-25T16:54:14.892Z,19.21
2019-05-25T16:56:22.599Z,19.17
2019-05-25T16:58:30.277Z,19.15
2019-05-25T17:00:37.858Z,19.15
2019-05-25T17:02:45.440Z,19.04
2019-05-25T17:04:52.950Z,18.99
2019-05-25T17:07:00.467Z,18.95
2019-05-25T17:09:09.486Z,18.97
2019-05-25T17:11:17.003Z,18.85
2019-05-25T17:13:24.698Z,18.89
2019-05-25T17:15:32.378Z,18.83
2019-05-25T17:17:40.097Z,18.80
2019-05-25T17:19:47.847Z,18.70
2019-05-25T17:21:55.439Z,18.72
2019-05-25T17:24:03.882Z,18.67
2019-05-25T17:26:11.523Z,18.59
2019-05-25T17:28:19.211Z,18.60
2019-05-25T17:30:46.947Z,18.52
2019-05-25T17:32:54.790Z,18.49
2019-05-25T17:35:02.443Z,18.36
2019-05-25T17:37:10.495Z,18.37
2019-05-25T17:39:18.473Z,18.28
2019-05-25T17:41:26.234Z,18.30
2019-05-25T17:43:34.014Z,18.24
2019-05-25T17:45:41.888Z,18.22
2019-05-25T17:47:49.451Z,18.15
2019-05-25T17:49:57.105Z,18.08
2019-05-25T17:52:05.050Z,18.03
2019-05-25T17:54:13.989Z,17.98
2019-05-25T17:56:21.583Z,17.94
2019-05-25T17:58:29.034Z,17.88
2019-05-25T18:00:47.606Z,17.85
2019-05-25T18:02:55.368Z,17.82
2019-05-25T18:05:03.002Z,17.79
2019-05-25T18:07:10.571Z,17.74
2019-05-25T18:09:18.177Z,17.63
2019-05-25T18:11:25.662Z,17.61
2019-05-25T18:13:33.292Z,17.53
2019-05-25T18:15:40.735Z,17.39
2019-05-25T18:17:48.373Z,17.36
2019-05-25T18:19:56.050Z,17.27
2019-05-25T18:22:03.674Z,17.23
2019-05-25T18:24:11.111Z,17.19
2019-05-25T18:26:19.098Z,17.06
2019-05-25T18:28:26.775Z,16.98
2019-05-25T18:30:34.767Z,17.03
2019-05-25T18:32:42.272Z,16.90
2019-05-25T18:34:49.796Z,17.02
2019-05-25T18:36:57.585Z,16.88
2019-05-25T18:39:07.179Z,16.89
2019-05-25T18:41:14.750Z,16.92
2019-05-25T18:43:22.282Z,16.88
2019-05-25T18:45:29.946Z,16.81
2019-05-25T18:47:37.669Z,16.73
2019-05-25T18:49:45.308Z,16.69
2019-05-25T18:51:52.759Z,16.66
2019-05-25T18:54:00.231Z,16.61
2019-05-25T18:56:07.862Z,16.65
2019-05-25T18:58:15.393Z,16.52
2019-05-25T19:00:23.926Z,16.47
2019-05-25T19:02:31.582Z,16.48
2019-05-25T19:04:47.643Z,16.41
2019-05-25T19:06:48.509Z,16.41
2019-05-25T19:08:56.359Z,16.54
2019-05-25T19:11:04.127Z,16.38
2019-05-25T19:13:11.718Z,16.32
2019-05-25T19:15:23.164Z,16.25
2019-05-25T19:17:30.434Z,16.17
2019-05-25T19:19:37.897Z,16.14
2019-05-25T19:21:45.727Z,16.04
2019-05-25T19:23:53.219Z,16.10
2019-05-25T19:26:00.823Z,15.95
2019-05-25T19:28:08.679Z,15.98
2019-05-25T19:30:18.424Z,15.93
2019-05-25T19:32:25.906Z,15.94
2019-05-25T19:34:33.695Z,15.75
2019-05-25T19:36:41.641Z,15.75
2019-05-25T19:38:49.416Z,15.68
2019-05-25T19:40:56.870Z,15.62
2019-05-25T19:43:04.648Z,15.60
2019-05-25T19:45:12.951Z,15.52
2019-05-25T19:47:20.497Z,15.51
2019-05-25T19:49:28.588Z,15.41
2019-05-25T19:51:37.188Z,15.43
2019-05-25T19:53:44.905Z,15.30
2019-05-25T19:55:52.978Z,15.21
2019-05-25T19:58:00.998Z,15.14
2019-05-25T20:00:09.693Z,15.09
2019-05-25T20:02:17.492Z,15.09
2019-05-25T20:04:25.094Z,14.89
2019-05-25T20:06:32.567Z,14.87
2019-05-25T20:08:40.258Z,14.87
2019-05-25T20:10:47.967Z,14.88
2019-05-25T20:12:55.627Z,14.90
2019-05-25T20:15:03.526Z,14.76
2019-05-25T20:17:11.069Z,14.75
2019-05-25T20:19:18.752Z,14.66
2019-05-25T20:21:26.341Z,14.67
2019-05-25T20:23:33.946Z,14.63
2019-05-25T20:25:41.333Z,14.66
2019-05-25T20:27:49.006Z,14.56
2019-05-25T20:29:56.928Z,14.45
2019-05-25T20:32:04.687Z,14.52
2019-05-25T20:34:12.389Z,14.31
2019-05-25T20:36:20.128Z,14.27
2019-05-25T20:38:27.788Z,14.17
2019-05-25T20:40:35.386Z,14.06
2019-05-25T20:42:43.207Z,14.01
2019-05-25T20:44:51.186Z,13.96
2019-05-25T20:46:58.744Z,13.92
2019-05-25T20:49:06.585Z,13.83
2019-05-25T20:51:14.080Z,13.78
2019-05-25T20:53:21.826Z,13.75
2019-05-25T20:55:29.235Z,13.75
2019-05-25T20:57:36.834Z,13.73
2019-05-25T20:59:44.583Z,13.63
2019-05-25T21:01:52.808Z,13.60
2019-05-25T21:04:08.353Z,13.56
2019-05-25T21:06:16.223Z,13.50
2019-05-25T21:08:24.103Z,13.58
2019-05-25T21:10:31.761Z,13.52
2019-05-25T21:12:39.371Z,13.32
2019-05-25T21:14:47.263Z,13.30
2019-05-25T21:16:54.971Z,13.18
2019-05-25T21:19:03.171Z,13.39
2019-05-25T21:21:10.855Z,13.54
2019-05-25T21:23:18.545Z,13.27
2019-05-25T21:25:26.244Z,13.16
2019-05-25T21:27:33.831Z,13.10
2019-05-25T21:29:41.393Z,13.04
2019-05-25T21:31:49.029Z,13.01
2019-05-25T21:33:57.156Z,13.01
2019-05-25T21:36:08.827Z,13.02
2019-05-25T21:38:14.154Z,12.99
2019-05-25T21:40:21.927Z,12.96
2019-05-25T21:42:30.531Z,12.98
2019-05-25T21:44:38.139Z,12.96
2019-05-25T21:46:45.635Z,12.82
2019-05-25T21:48:53.105Z,12.87
2019-05-25T21:51:00.797Z,12.80
2019-05-25T21:53:11.131Z,12.61
2019-05-25T21:55:18.966Z,12.66
2019-05-25T21:57:26.455Z,12.72
2019-05-25T21:59:35.962Z,12.90
2019-05-25T22:01:43.928Z,12.68
2019-05-25T22:03:51.818Z,12.52
2019-05-25T22:05:59.416Z,12.46
2019-05-25T22:08:07.006Z,12.31
2019-05-25T22:10:14.876Z,12.22
2019-05-25T22:12:22.450Z,12.14
2019-05-25T22:14:30.181Z,12.22
2019-05-25T22:16:37.725Z,12.15
2019-05-25T22:18:45.329Z,11.93
2019-05-25T22:20:52.995Z,11.95
2019-05-25T22:23:00.456Z,12.19
2019-05-25T22:25:08.570Z,11.92
2019-05-25T22:27:15.998Z,11.96
2019-05-25T22:29:23.452Z,11.93
2019-05-25T22:31:30.902Z,11.89
2019-05-25T22:33:38.352Z,11.88
2019-05-25T22:35:45.765Z,11.90
2019-05-25T22:37:53.252Z,11.80
2019-05-25T22:40:00.775Z,11.80
2019-05-25T22:42:08.417Z,11.75
2019-05-25T22:44:15.862Z,11.73
2019-05-25T22:46:23.583Z,11.70
2019-05-25T22:48:31.016Z,11.69
2019-05-25T22:50:51.601Z,11.67
2019-05-25T22:52:59.231Z,11.66
2019-05-25T22:55:07.710Z,11.59
2019-05-25T22:57:15.160Z,11.65
2019-05-25T22:59:22.616Z,11.55
2019-05-25T23:01:30.125Z,11.57
2019-05-25T23:03:37.635Z,11.53
2019-05-25T23:05:45.123Z,11.50
2019-05-25T23:07:52.547Z,11.47
2019-05-25T23:10:00.046Z,11.48
2019-05-25T23:12:07.562Z,11.44
2019-05-25T23:14:14.969Z,11.46
2019-05-25T23:16:22.605Z,11.39
2019-05-25T23:18:29.967Z,11.37
2019-05-25T23:20:37.362Z,11.30
2019-05-25T23:22:47.616Z,11.22
2019-05-25T23:24:55.235Z,11.29
2019-05-25T23:27:02.670Z,11.31
2019-05-25T23:29:10.061Z,11.35
2019-05-25T23:31:17.461Z,11.30
2019-05-25T23:33:24.909Z,11.32
2019-05-25T23:35:32.504Z,11.20
2019-05-25T23:37:39.866Z,11.19
2019-05-25T23:39:47.480Z,11.14
2019-05-25T23:41:55.108Z,11.15
2019-05-25T23:44:02.590Z,11.10
2019-05-25T23:46:10.131Z,11.03
2019-05-25T23:48:17.743Z,11.05
2019-05-25T23:50:25.205Z,10.89
2019-05-25T23:52:32.681Z,10.91
2019-05-25T23:54:40.374Z,10.82
2019-05-25T23:56:47.809Z,10.75
2019-05-25T23:58:55.253Z,10.75
